createdAt,value
2023-05-04T00:00:58.080Z,1027.86
2023-05-04T00:01:58.245Z,1027.86
2023-05-04T00:02:58.507Z,1027.85
2023-05-04T00:03:58.826Z,1027.87
2023-05-04T00:04:58.878Z,1027.84
2023-05-04T00:05:58.946Z,1027.84
2023-05-04T00:06:59.131Z,1027.83
2023-05-04T00:07:59.301Z,1027.83
2023-05-04T00:08:59.470Z,1027.85
2023-05-04T00:09:59.643Z,1027.81
2023-05-04T00:10:59.811Z,1027.79
2023-05-04T00:12:00.001Z,1027.76
2023-05-04T00:13:00.196Z,1027.79
2023-05-04T00:14:00.324Z,1027.76
2023-05-04T00:15:00.514Z,1027.77
2023-05-04T00:16:00.747Z,1027.79
2023-05-04T00:17:00.837Z,1027.75
2023-05-04T00:18:01.066Z,1027.80
2023-05-04T00:19:01.210Z,1027.80
2023-05-04T00:20:01.385Z,1027.74
2023-05-04T00:21:01.557Z,1027.78
2023-05-04T00:22:01.731Z,1027.78
2023-05-04T00:23:01.911Z,1027.78
2023-05-04T00:24:02.075Z,1027.79
2023-05-04T00:25:02.248Z,1027.74
2023-05-04T00:26:02.444Z,1027.75
2023-05-04T00:27:02.692Z,1027.79
2023-05-04T00:28:02.782Z,1027.81
2023-05-04T00:29:02.948Z,1027.78
2023-05-04T00:30:03.413Z,1027.79
2023-05-04T00:31:03.320Z,1027.82
2023-05-04T00:32:03.560Z,1027.79
2023-05-04T00:33:03.701Z,1027.82
2023-05-04T00:34:03.816Z,1027.77
2023-05-04T00:35:03.973Z,1027.80
2023-05-04T00:36:04.153Z,1027.77
2023-05-04T00:37:04.348Z,1027.76
2023-05-04T00:38:04.506Z,1027.75
2023-05-04T00:39:04.674Z,1027.75
2023-05-04T00:40:05.119Z,1027.72
2023-05-04T00:41:05.052Z,1027.77
2023-05-04T00:42:05.224Z,1027.75
2023-05-04T00:43:05.420Z,1027.73
2023-05-04T00:44:05.570Z,1027.73
2023-05-04T00:45:05.741Z,1027.72
2023-05-04T00:46:05.925Z,1027.74
2023-05-04T00:47:06.183Z,1027.72
2023-05-04T00:48:06.315Z,1027.70
2023-05-04T00:49:06.450Z,1027.72
2023-05-04T00:50:06.906Z,1027.72
2023-05-04T00:51:06.879Z,1027.68
2023-05-04T00:52:06.984Z,1027.67
2023-05-04T00:53:07.148Z,1027.67
2023-05-04T00:54:07.308Z,1027.67
2023-05-04T00:55:07.487Z,1027.67
2023-05-04T00:56:07.693Z,1027.66
2023-05-04T00:57:07.834Z,1027.67
2023-05-04T00:58:07.991Z,1027.65
2023-05-04T00:59:08.173Z,1027.65
2023-05-04T01:00:08.355Z,1027.61
2023-05-04T01:01:08.530Z,1027.59
2023-05-04T01:02:08.687Z,1027.59
2023-05-04T01:03:08.957Z,1027.58
2023-05-04T01:04:09.116Z,1027.60
2023-05-04T01:05:09.246Z,1027.57
2023-05-04T01:06:09.427Z,1027.58
2023-05-04T01:07:09.601Z,1027.62
2023-05-04T01:08:09.770Z,1027.62
2023-05-04T01:09:09.955Z,1027.65
2023-05-04T01:10:10.135Z,1027.61
2023-05-04T01:11:10.318Z,1027.63
2023-05-04T01:12:10.464Z,1027.64
2023-05-04T01:13:10.743Z,1027.65
2023-05-04T01:14:10.804Z,1027.59
2023-05-04T01:15:10.984Z,1027.65
2023-05-04T01:16:11.181Z,1027.66
2023-05-04T01:17:11.624Z,1027.63
2023-05-04T01:18:11.559Z,1027.65
2023-05-04T01:19:11.714Z,1027.63
2023-05-04T01:20:11.890Z,1027.67
2023-05-04T01:21:12.063Z,1027.64
2023-05-04T01:22:12.217Z,1027.67
2023-05-04T01:23:12.415Z,1027.66
2023-05-04T01:24:12.593Z,1027.64
2023-05-04T01:25:12.772Z,1027.67
2023-05-04T01:26:12.950Z,1027.67
2023-05-04T01:27:13.128Z,1027.64
2023-05-04T01:28:13.304Z,1027.65
2023-05-04T01:29:13.482Z,1027.62
2023-05-04T01:30:13.669Z,1027.62
2023-05-04T01:31:13.852Z,1027.63
2023-05-04T01:32:13.999Z,1027.61
2023-05-04T01:33:14.177Z,1027.62
2023-05-04T01:34:14.356Z,1027.61
2023-05-04T01:35:14.520Z,1027.61
2023-05-04T01:36:14.691Z,1027.59
2023-05-04T01:37:14.880Z,1027.57
2023-05-04T01:38:15.030Z,1027.60
2023-05-04T01:39:15.210Z,1027.56
2023-05-04T01:40:15.379Z,1027.63
2023-05-04T01:41:15.535Z,1027.61
2023-05-04T01:42:15.727Z,1027.60
2023-05-04T01:43:15.887Z,1027.61
2023-05-04T01:44:16.052Z,1027.58
2023-05-04T01:45:16.255Z,1027.58
2023-05-04T01:46:16.463Z,1027.61
2023-05-04T01:47:16.596Z,1027.57
2023-05-04T01:48:16.740Z,1027.53
2023-05-04T01:49:16.929Z,1027.58
2023-05-04T01:50:17.108Z,1027.54
2023-05-04T01:51:17.276Z,1027.56
2023-05-04T01:52:17.468Z,1027.52
2023-05-04T01:53:17.616Z,1027.56
2023-05-04T01:54:17.837Z,1027.53
2023-05-04T01:55:17.984Z,1027.55
2023-05-04T01:56:18.139Z,1027.56
2023-05-04T01:57:18.284Z,1027.59
2023-05-04T01:58:18.454Z,1027.57
2023-05-04T01:59:18.643Z,1027.53
2023-05-04T02:00:18.775Z,1027.54
2023-05-04T02:01:19.027Z,1027.54
2023-05-04T02:02:19.134Z,1027.55
2023-05-04T02:03:19.353Z,1027.49
2023-05-04T02:04:19.453Z,1027.49
2023-05-04T02:05:19.634Z,1027.50
2023-05-04T02:06:19.802Z,1027.52
2023-05-04T02:07:19.952Z,1027.54
2023-05-04T02:08:20.147Z,1027.52
2023-05-04T02:09:20.301Z,1027.52
2023-05-04T02:10:20.492Z,1027.53
2023-05-04T02:11:20.676Z,1027.49
2023-05-04T02:12:20.829Z,1027.50
2023-05-04T02:13:21.013Z,1027.51
2023-05-04T02:14:21.157Z,1027.51
2023-05-04T02:15:21.329Z,1027.51
2023-05-04T02:16:21.617Z,1027.46
2023-05-04T02:17:21.650Z,1027.52
2023-05-04T02:18:21.820Z,1027.51
2023-05-04T02:19:22.023Z,1027.53
2023-05-04T02:20:22.196Z,1027.55
2023-05-04T02:21:22.348Z,1027.55
2023-05-04T02:22:22.508Z,1027.54
2023-05-04T02:23:22.692Z,1027.57
2023-05-04T02:24:22.871Z,1027.55
2023-05-04T02:25:23.032Z,1027.56
2023-05-04T02:26:23.195Z,1027.50
2023-05-04T02:27:23.366Z,1027.51
2023-05-04T02:28:23.531Z,1027.52
2023-05-04T02:29:23.736Z,1027.50
2023-05-04T02:30:23.905Z,1027.56
2023-05-04T02:31:24.121Z,1027.52
2023-05-04T02:32:24.309Z,1027.54
2023-05-04T02:33:24.435Z,1027.54
2023-05-04T02:34:24.608Z,1027.52
2023-05-04T02:35:24.771Z,1027.53
2023-05-04T02:36:24.947Z,1027.50
2023-05-04T02:37:25.115Z,1027.49
2023-05-04T02:38:25.316Z,1027.55
2023-05-04T02:39:25.505Z,1027.55
2023-05-04T02:40:25.630Z,1027.49
2023-05-04T02:41:25.816Z,1027.52
2023-05-04T02:42:25.974Z,1027.54
2023-05-04T02:43:26.163Z,1027.51
2023-05-04T02:44:26.328Z,1027.52
2023-05-04T02:45:26.595Z,1027.54
2023-05-04T02:46:26.707Z,1027.51
2023-05-04T02:47:26.910Z,1027.50
2023-05-04T02:48:27.073Z,1027.50
2023-05-04T02:49:27.250Z,1027.50
2023-05-04T02:50:27.415Z,1027.49
2023-05-04T02:51:27.596Z,1027.52
2023-05-04T02:52:27.789Z,1027.49
2023-05-04T02:53:27.951Z,1027.44
2023-05-04T02:54:28.124Z,1027.44
2023-05-04T02:55:28.288Z,1027.43
2023-05-04T02:56:28.490Z,1027.44
2023-05-04T02:57:28.681Z,1027.44
2023-05-04T02:58:28.840Z,1027.44
2023-05-04T02:59:29.041Z,1027.44
2023-05-04T03:00:29.195Z,1027.42
2023-05-04T03:01:29.395Z,1027.44
2023-05-04T03:02:29.566Z,1027.44
2023-05-04T03:03:29.739Z,1027.45
2023-05-04T03:04:29.934Z,1027.47
2023-05-04T03:05:30.059Z,1027.43
2023-05-04T03:06:30.255Z,1027.42
2023-05-04T03:07:30.416Z,1027.43
2023-05-04T03:08:30.564Z,1027.39
2023-05-04T03:09:30.747Z,1027.38
2023-05-04T03:10:30.941Z,1027.38
2023-05-04T03:11:31.095Z,1027.38
2023-05-04T03:12:31.303Z,1027.40
2023-05-04T03:13:31.429Z,1027.41
2023-05-04T03:14:31.620Z,1027.40
2023-05-04T03:15:31.814Z,1027.40
2023-05-04T03:16:32.034Z,1027.43
2023-05-04T03:17:32.201Z,1027.41
2023-05-04T03:18:53.346Z,1027.43
2023-05-04T03:19:32.496Z,1027.44
2023-05-04T03:20:32.690Z,1027.42
2023-05-04T03:21:32.873Z,1027.39
2023-05-04T03:22:33.058Z,1027.39
2023-05-04T03:23:33.239Z,1027.36
2023-05-04T03:24:33.434Z,1027.40
2023-05-04T03:25:33.652Z,1027.38
2023-05-04T03:26:33.792Z,1027.39
2023-05-04T03:27:33.989Z,1027.40
2023-05-04T03:28:34.163Z,1027.40
2023-05-04T03:29:34.341Z,1027.42
2023-05-04T03:30:34.537Z,1027.37
2023-05-04T03:31:34.785Z,1027.41
2023-05-04T03:32:34.869Z,1027.43
2023-05-04T03:33:35.012Z,1027.42
2023-05-04T03:34:35.243Z,1027.43
2023-05-04T03:35:35.359Z,1027.47
2023-05-04T03:36:35.529Z,1027.42
2023-05-04T03:37:35.741Z,1027.43
2023-05-04T03:38:35.908Z,1027.43
2023-05-04T03:39:36.105Z,1027.45
2023-05-04T03:40:36.255Z,1027.46
2023-05-04T03:41:36.410Z,1027.41
2023-05-04T03:42:36.602Z,1027.42
2023-05-04T03:43:36.809Z,1027.42
2023-05-04T03:44:36.952Z,1027.39
2023-05-04T03:45:37.131Z,1027.37
2023-05-04T03:46:37.343Z,1027.40
2023-05-04T03:47:37.505Z,1027.39
2023-05-04T03:48:37.630Z,1027.35
2023-05-04T03:49:37.805Z,1027.41
2023-05-04T03:50:37.985Z,1027.40
2023-05-04T03:51:38.164Z,1027.44
2023-05-04T03:52:38.326Z,1027.40
2023-05-04T03:53:38.556Z,1027.37
2023-05-04T03:54:38.677Z,1027.39
2023-05-04T03:55:38.845Z,1027.38
2023-05-04T03:56:38.986Z,1027.38
2023-05-04T03:57:39.192Z,1027.40
2023-05-04T03:58:39.380Z,1027.39
2023-05-04T03:59:39.507Z,1027.36
2023-05-04T04:00:39.671Z,1027.39
2023-05-04T04:01:39.841Z,1027.40
2023-05-04T04:02:40.126Z,1027.29
2023-05-04T04:03:40.210Z,1027.34
2023-05-04T04:04:40.410Z,1027.34
2023-05-04T04:05:40.591Z,1027.37
2023-05-04T04:06:42.616Z,1027.32
2023-05-04T04:07:40.887Z,1027.34
2023-05-04T04:08:41.040Z,1027.35
2023-05-04T04:09:41.230Z,1027.37
2023-05-04T04:10:41.411Z,1027.37
2023-05-04T04:11:41.622Z,1027.37
2023-05-04T04:12:41.844Z,1027.39
2023-05-04T04:13:41.944Z,1027.38
2023-05-04T04:14:42.139Z,1027.36
2023-05-04T04:15:42.813Z,1027.35
2023-05-04T04:16:42.610Z,1027.35
2023-05-04T04:17:42.663Z,1027.35
2023-05-04T04:18:42.796Z,1027.33
2023-05-04T04:19:42.996Z,1027.39
2023-05-04T04:20:43.181Z,1027.28
2023-05-04T04:21:43.314Z,1027.29
2023-05-04T04:22:43.482Z,1027.27
2023-05-04T04:23:43.685Z,1027.28
2023-05-04T04:24:43.836Z,1027.30
2023-05-04T04:25:44.597Z,1027.31
2023-05-04T04:26:44.205Z,1027.28
2023-05-04T04:27:44.377Z,1027.30
2023-05-04T04:28:44.569Z,1027.27
2023-05-04T04:29:44.749Z,1027.30
2023-05-04T04:30:44.927Z,1027.33
2023-05-04T04:31:45.147Z,1027.30
2023-05-04T04:32:45.339Z,1027.32
2023-05-04T04:33:45.492Z,1027.33
2023-05-04T04:34:45.642Z,1027.33
2023-05-04T04:35:45.813Z,1027.32
2023-05-04T04:36:45.990Z,1027.33
2023-05-04T04:37:46.169Z,1027.28
2023-05-04T04:38:46.394Z,1027.27
2023-05-04T04:39:46.511Z,1027.36
2023-05-04T04:40:46.677Z,1027.33
2023-05-04T04:41:46.837Z,1027.38
2023-05-04T04:42:47.018Z,1027.33
2023-05-04T04:43:47.206Z,1027.35
2023-05-04T04:44:47.406Z,1027.32
2023-05-04T04:45:47.555Z,1027.33
2023-05-04T04:46:47.757Z,1027.38
2023-05-04T04:47:47.958Z,1027.36
2023-05-04T04:48:48.119Z,1027.35
2023-05-04T04:49:48.258Z,1027.33
2023-05-04T04:50:48.431Z,1027.33
2023-05-04T04:51:48.626Z,1027.33
2023-05-04T04:52:48.812Z,1027.37
2023-05-04T04:53:48.990Z,1027.36
2023-05-04T04:54:49.136Z,1027.35
2023-05-04T04:55:49.374Z,1027.38
2023-05-04T04:56:49.517Z,1027.40
2023-05-04T04:57:49.716Z,1027.33
2023-05-04T04:58:49.862Z,1027.34
2023-05-04T04:59:50.022Z,1027.33
2023-05-04T05:00:50.235Z,1027.26
2023-05-04T05:01:50.393Z,1027.30
2023-05-04T05:02:50.644Z,1027.29
2023-05-04T05:03:50.731Z,1027.23
2023-05-04T05:04:50.930Z,1027.27
2023-05-04T05:05:51.042Z,1027.24
2023-05-04T05:06:51.190Z,1027.23
2023-05-04T05:07:51.387Z,1027.24
2023-05-04T05:08:51.545Z,1027.24
2023-05-04T05:09:51.714Z,1027.23
2023-05-04T05:10:51.867Z,1027.21
2023-05-04T05:11:52.055Z,1027.14
2023-05-04T05:12:52.325Z,1027.15
2023-05-04T05:13:52.426Z,1027.21
2023-05-04T05:14:52.612Z,1027.19
2023-05-04T05:15:52.770Z,1027.21
2023-05-04T05:16:52.985Z,1027.25
2023-05-04T05:17:53.169Z,1027.21
2023-05-04T05:18:53.296Z,1027.22
2023-05-04T05:19:53.470Z,1027.14
2023-05-04T05:20:53.633Z,1027.16
2023-05-04T05:21:53.838Z,1027.11
2023-05-04T05:22:54.023Z,1027.06
2023-05-04T05:23:54.146Z,1027.10
2023-05-04T05:24:54.324Z,1027.11
2023-05-04T05:25:54.496Z,1027.09
2023-05-04T05:26:54.666Z,1027.03
2023-05-04T05:27:54.843Z,1027.03
2023-05-04T05:28:55.041Z,1027.06
2023-05-04T05:29:55.173Z,1027.02
2023-05-04T05:30:55.393Z,1027.05
2023-05-04T05:31:55.527Z,1026.96
2023-05-04T05:32:55.697Z,1026.93
2023-05-04T05:33:55.877Z,1026.93
2023-05-04T05:34:56.058Z,1026.98
2023-05-04T05:35:56.212Z,1026.96
2023-05-04T05:36:56.434Z,1026.99
2023-05-04T05:37:56.616Z,1026.98
2023-05-04T05:38:56.728Z,1027.01
2023-05-04T05:39:56.908Z,1027.03
2023-05-04T05:40:57.080Z,1027.02
2023-05-04T05:41:57.230Z,1026.94
2023-05-04T05:42:57.386Z,1026.94
2023-05-04T05:43:57.543Z,1026.89
2023-05-04T05:44:57.733Z,1026.89
2023-05-04T05:45:57.936Z,1026.89
2023-05-04T05:46:58.087Z,1026.90
2023-05-04T05:47:58.286Z,1026.91
2023-05-04T05:48:58.429Z,1026.86
2023-05-04T05:49:58.612Z,1026.85
2023-05-04T05:50:58.801Z,1026.86
2023-05-04T05:51:59.066Z,1026.88
2023-05-04T05:52:59.108Z,1026.82
2023-05-04T05:53:59.288Z,1026.86
2023-05-04T05:55:01.666Z,1026.85
2023-05-04T05:55:59.644Z,1026.82
2023-05-04T05:56:59.818Z,1026.81
2023-05-04T05:58:00.007Z,1026.84
2023-05-04T05:59:00.211Z,1026.81
2023-05-04T06:00:00.390Z,1026.82
2023-05-04T06:01:00.602Z,1026.76
2023-05-04T06:02:00.724Z,1026.75
2023-05-04T06:03:00.939Z,1026.74
2023-05-04T06:04:01.282Z,1026.75
2023-05-04T06:05:01.376Z,1026.82
2023-05-04T06:06:01.470Z,1026.78
2023-05-04T06:07:01.631Z,1026.76
2023-05-04T06:08:01.855Z,1026.79
2023-05-04T06:09:01.974Z,1026.75
2023-05-04T06:10:02.189Z,1026.75
2023-05-04T06:11:02.295Z,1026.78
2023-05-04T06:12:02.485Z,1026.74
2023-05-04T06:13:02.699Z,1026.73
2023-05-04T06:14:02.821Z,1026.71
2023-05-04T06:15:02.973Z,1026.72
2023-05-04T06:16:03.217Z,1026.75
2023-05-04T06:17:03.342Z,1026.71
2023-05-04T06:18:03.570Z,1026.71
2023-05-04T06:19:03.673Z,1026.70
2023-05-04T06:20:04.093Z,1026.71
2023-05-04T06:21:03.981Z,1026.74
2023-05-04T06:22:04.192Z,1026.81
2023-05-04T06:23:04.365Z,1026.77
2023-05-04T06:24:04.550Z,1026.76
2023-05-04T06:25:07.121Z,1026.78
2023-05-04T06:26:04.877Z,1026.82
2023-05-04T06:27:05.042Z,1026.76
2023-05-04T06:28:05.194Z,1026.78
2023-05-04T06:29:05.373Z,1026.83
2023-05-04T06:30:05.765Z,1026.76
2023-05-04T06:31:05.701Z,1026.85
2023-05-04T06:32:06.094Z,1026.86
2023-05-04T06:33:06.082Z,1026.85
2023-05-04T06:34:06.282Z,1026.82
2023-05-04T06:35:06.429Z,1026.80
2023-05-04T06:36:06.642Z,1026.81
2023-05-04T06:37:06.802Z,1026.75
2023-05-04T06:38:06.995Z,1026.78
2023-05-04T06:39:07.157Z,1026.76
2023-05-04T06:40:07.428Z,1026.73
2023-05-04T06:41:07.481Z,1026.73
2023-05-04T06:42:07.685Z,1026.75
2023-05-04T06:43:07.848Z,1026.72
2023-05-04T06:44:08.020Z,1026.76
2023-05-04T06:45:08.174Z,1026.72
2023-05-04T06:46:08.358Z,1026.72
2023-05-04T06:47:08.524Z,1026.72
2023-05-04T06:48:08.693Z,1026.70
2023-05-04T06:49:08.869Z,1026.68
2023-05-04T06:50:09.038Z,1026.67
2023-05-04T06:51:09.245Z,1026.67
2023-05-04T06:52:09.375Z,1026.66
2023-05-04T06:53:09.530Z,1026.67
2023-05-04T06:54:09.708Z,1026.67
2023-05-04T06:55:09.895Z,1026.71
2023-05-04T06:56:10.043Z,1026.68
2023-05-04T06:57:10.203Z,1026.69
2023-05-04T06:58:10.394Z,1026.68
2023-05-04T06:59:10.568Z,1026.68
2023-05-04T07:00:10.752Z,1026.69
2023-05-04T07:01:10.903Z,1026.68
2023-05-04T07:02:11.049Z,1026.71
2023-05-04T07:03:11.278Z,1026.68
2023-05-04T07:04:11.494Z,1026.63
2023-05-04T07:05:11.594Z,1026.64
2023-05-04T07:06:11.775Z,1026.63
2023-05-04T07:07:11.928Z,1026.69
2023-05-04T07:08:12.129Z,1026.66
2023-05-04T07:09:12.303Z,1026.66
2023-05-04T07:10:12.461Z,1026.66
2023-05-04T07:11:12.659Z,1026.66
2023-05-04T07:12:12.801Z,1026.68
2023-05-04T07:13:13.117Z,1026.70
2023-05-04T07:14:13.207Z,1026.67
2023-05-04T07:15:13.377Z,1026.74
2023-05-04T07:16:13.560Z,1026.72
2023-05-04T07:17:13.689Z,1026.68
2023-05-04T07:18:13.933Z,1026.69
2023-05-04T07:19:14.032Z,1026.66
2023-05-04T07:20:14.220Z,1026.65
2023-05-04T07:21:26.916Z,1026.67
2023-05-04T07:22:15.575Z,1026.66
2023-05-04T07:23:14.752Z,1026.65
2023-05-04T07:24:14.904Z,1026.59
2023-05-04T07:25:15.101Z,1026.59
2023-05-04T07:26:15.245Z,1026.58
2023-05-04T07:27:15.406Z,1026.62
2023-05-04T07:28:15.611Z,1026.58
2023-05-04T07:29:15.769Z,1026.60
2023-05-04T07:30:15.954Z,1026.55
2023-05-04T07:31:16.108Z,1026.54
2023-05-04T07:32:16.308Z,1026.48
2023-05-04T07:33:16.467Z,1026.42
2023-05-04T07:34:16.621Z,1026.45
2023-05-04T07:35:16.833Z,1026.40
2023-05-04T07:36:16.973Z,1026.38
2023-05-04T07:37:17.185Z,1026.42
2023-05-04T07:38:17.340Z,1026.44
2023-05-04T07:39:17.490Z,1026.40
2023-05-04T07:40:17.703Z,1026.41
2023-05-04T07:41:17.846Z,1026.38
2023-05-04T07:42:18.037Z,1026.33
2023-05-04T07:43:18.172Z,1026.38
2023-05-04T07:44:18.339Z,1026.38
2023-05-04T07:45:18.527Z,1026.38
2023-05-04T07:46:18.729Z,1026.40
2023-05-04T07:47:18.890Z,1026.33
2023-05-04T07:48:19.083Z,1026.38
2023-05-04T07:49:19.253Z,1026.32
2023-05-04T07:50:19.417Z,1026.30
2023-05-04T07:51:19.700Z,1026.24
2023-05-04T07:52:19.798Z,1026.22
2023-05-04T07:53:19.960Z,1026.22
2023-05-04T07:54:21.398Z,1026.20
2023-05-04T07:55:20.288Z,1026.19
2023-05-04T07:56:20.440Z,1026.21
2023-05-04T07:57:20.663Z,1026.24
2023-05-04T07:58:20.838Z,1026.21
2023-05-04T07:59:21.065Z,1026.19
2023-05-04T08:00:21.157Z,1026.22
2023-05-04T08:01:21.349Z,1026.17
2023-05-04T08:02:21.585Z,1026.16
2023-05-04T08:03:21.771Z,1026.15
2023-05-04T08:04:22.058Z,1026.12
2023-05-04T08:05:22.149Z,1026.18
2023-05-04T08:06:22.234Z,1026.13
2023-05-04T08:07:22.489Z,1026.13
2023-05-04T08:08:22.629Z,1026.11
2023-05-04T08:09:22.793Z,1026.15
2023-05-04T08:10:22.968Z,1026.12
2023-05-04T08:11:23.118Z,1026.10
2023-05-04T08:12:23.277Z,1026.08
2023-05-04T08:13:23.455Z,1026.07
2023-05-04T08:14:23.631Z,1026.10
2023-05-04T08:15:23.801Z,1026.06
2023-05-04T08:16:23.955Z,1026.09
2023-05-04T08:17:24.175Z,1026.07
2023-05-04T08:18:24.306Z,1026.02
2023-05-04T08:19:24.502Z,1026.01
2023-05-04T08:20:24.682Z,1026.04
2023-05-04T08:21:24.863Z,1026.11
2023-05-04T08:22:25.025Z,1026.09
2023-05-04T08:23:25.280Z,1026.05
2023-05-04T08:24:25.378Z,1026.02
2023-05-04T08:25:25.579Z,1025.98
2023-05-04T08:26:25.768Z,1026.05
2023-05-04T08:27:25.939Z,1026.01
2023-05-04T08:28:26.099Z,1026.01
2023-05-04T08:29:26.327Z,1025.99
2023-05-04T08:30:26.427Z,1026.03
2023-05-04T08:31:26.650Z,1026.01
2023-05-04T08:32:26.807Z,1026.06
2023-05-04T08:33:26.989Z,1026.05
2023-05-04T08:34:27.129Z,1025.99
2023-05-04T08:35:27.326Z,1026.02
2023-05-04T08:36:27.510Z,1025.98
2023-05-04T08:37:27.705Z,1025.96
2023-05-04T08:38:27.868Z,1025.97
2023-05-04T08:39:28.025Z,1025.87
2023-05-04T08:40:28.187Z,1025.93
2023-05-04T08:41:28.395Z,1025.89
2023-05-04T08:42:28.538Z,1025.90
2023-05-04T08:43:28.743Z,1025.87
2023-05-04T08:44:28.920Z,1025.86
2023-05-04T08:45:29.138Z,1025.88
2023-05-04T08:46:29.240Z,1025.87
2023-05-04T08:47:29.502Z,1025.86
2023-05-04T08:48:29.616Z,1025.88
2023-05-04T08:49:29.788Z,1025.84
2023-05-04T08:50:29.940Z,1025.86
2023-05-04T08:51:30.097Z,1025.82
2023-05-04T08:52:30.307Z,1025.81
2023-05-04T08:53:30.467Z,1025.77
2023-05-04T08:54:30.642Z,1025.76
2023-05-04T08:55:30.812Z,1025.74
2023-05-04T08:56:30.974Z,1025.75
2023-05-04T08:57:31.122Z,1025.73
2023-05-04T08:58:31.300Z,1025.73
2023-05-04T08:59:31.546Z,1025.69
2023-05-04T09:00:31.732Z,1025.72
2023-05-04T09:01:31.921Z,1025.77
2023-05-04T09:02:32.034Z,1025.74
2023-05-04T09:03:32.265Z,1025.71
2023-05-04T09:04:32.363Z,1025.72
2023-05-04T09:05:32.540Z,1025.71
2023-05-04T09:06:32.678Z,1025.69
2023-05-04T09:07:32.877Z,1025.73
2023-05-04T09:08:33.036Z,1025.68
2023-05-04T09:09:33.244Z,1025.74
2023-05-04T09:10:33.402Z,1025.76
2023-05-04T09:11:33.564Z,1025.73
2023-05-04T09:12:33.781Z,1025.77
2023-05-04T09:13:33.911Z,1025.73
2023-05-04T09:14:34.107Z,1025.69
2023-05-04T09:15:34.277Z,1025.69
2023-05-04T09:16:34.440Z,1025.71
2023-05-04T09:17:36.342Z,1025.66
2023-05-04T09:18:34.841Z,1025.68
2023-05-04T09:19:35.010Z,1025.63
2023-05-04T09:20:35.190Z,1025.62
2023-05-04T09:21:35.357Z,1025.63
2023-05-04T09:22:35.522Z,1025.60
2023-05-04T09:23:35.739Z,1025.61
2023-05-04T09:24:35.911Z,1025.57
2023-05-04T09:25:36.054Z,1025.56
2023-05-04T09:26:36.219Z,1025.60
2023-05-04T09:27:36.407Z,1025.58
2023-05-04T09:28:36.617Z,1025.62
2023-05-04T09:29:36.753Z,1025.61
2023-05-04T09:30:36.920Z,1025.55
2023-05-04T09:31:37.162Z,1025.56
2023-05-04T09:32:37.350Z,1025.57
2023-05-04T09:33:37.505Z,1025.56
2023-05-04T09:34:37.715Z,1025.50
2023-05-04T09:35:37.860Z,1025.52
2023-05-04T09:36:38.028Z,1025.49
2023-05-04T09:37:38.195Z,1025.47
2023-05-04T09:38:38.397Z,1025.52
2023-05-04T09:39:38.545Z,1025.48
2023-05-04T09:40:38.719Z,1025.46
2023-05-04T09:41:38.892Z,1025.39
2023-05-04T09:42:39.068Z,1025.37
2023-05-04T09:43:39.273Z,1025.37
2023-05-04T09:44:39.387Z,1025.38
2023-05-04T09:45:39.584Z,1025.35
2023-05-04T09:46:39.798Z,1025.34
2023-05-04T09:47:40.003Z,1025.33
2023-05-04T09:48:40.101Z,1025.34
2023-05-04T09:49:40.348Z,1025.29
2023-05-04T09:50:40.434Z,1025.31
2023-05-04T09:51:40.620Z,1025.25
2023-05-04T09:52:40.798Z,1025.29
2023-05-04T09:53:40.954Z,1025.27
2023-05-04T09:54:41.138Z,1025.29
2023-05-04T09:55:41.326Z,1025.22
2023-05-04T09:56:41.550Z,1025.24
2023-05-04T09:57:41.714Z,1025.23
2023-05-04T09:58:41.866Z,1025.17
2023-05-04T09:59:42.065Z,1025.19
2023-05-04T10:00:42.239Z,1025.19
2023-05-04T10:01:44.793Z,1025.19
2023-05-04T10:02:42.658Z,1025.15
2023-05-04T10:03:42.779Z,1025.15
2023-05-04T10:04:42.945Z,1025.13
2023-05-04T10:05:43.241Z,1025.12
2023-05-04T10:06:43.301Z,1025.15
2023-05-04T10:07:43.451Z,1025.12
2023-05-04T10:08:43.607Z,1025.10
2023-05-04T10:09:43.808Z,1024.99
2023-05-04T10:10:44.020Z,1025.00
2023-05-04T10:11:44.153Z,1025.01
2023-05-04T10:12:44.423Z,1024.99
2023-05-04T10:13:44.532Z,1024.93
2023-05-04T10:14:44.662Z,1024.91
2023-05-04T10:15:44.882Z,1024.96
2023-05-04T10:16:45.023Z,1024.94
2023-05-04T10:17:45.285Z,1024.90
2023-05-04T10:18:45.388Z,1024.93
2023-05-04T10:19:45.565Z,1024.98
2023-05-04T10:20:45.743Z,1025.01
2023-05-04T10:21:45.908Z,1025.01
2023-05-04T10:22:46.095Z,1024.98
2023-05-04T10:23:46.271Z,1025.01
2023-05-04T10:24:46.508Z,1024.99
2023-05-04T10:25:46.688Z,1024.96
2023-05-04T10:26:46.824Z,1025.00
2023-05-04T10:27:47.028Z,1024.95
2023-05-04T10:28:47.156Z,1024.96
2023-05-04T10:29:47.353Z,1024.92
2023-05-04T10:30:47.526Z,1024.95
2023-05-04T10:31:47.723Z,1024.92
2023-05-04T10:32:47.920Z,1024.92
2023-05-04T10:33:48.074Z,1024.85
2023-05-04T10:34:48.256Z,1024.91
2023-05-04T10:35:48.429Z,1024.88
2023-05-04T10:36:48.605Z,1024.87
2023-05-04T10:37:48.792Z,1024.82
2023-05-04T10:38:48.960Z,1024.85
2023-05-04T10:39:49.152Z,1024.89
2023-05-04T10:40:49.282Z,1024.82
2023-05-04T10:41:49.449Z,1024.84
2023-05-04T10:42:49.618Z,1024.83
2023-05-04T10:43:49.790Z,1024.78
2023-05-04T10:44:49.971Z,1024.80
2023-05-04T10:45:50.172Z,1024.77
2023-05-04T10:46:50.307Z,1024.74
2023-05-04T10:47:50.520Z,1024.70
2023-05-04T10:48:50.666Z,1024.69
2023-05-04T10:49:50.819Z,1024.65
2023-05-04T10:50:50.996Z,1024.62
2023-05-04T10:51:51.196Z,1024.62
2023-05-04T10:52:51.350Z,1024.62
2023-05-04T10:53:51.512Z,1024.55
2023-05-04T10:54:51.693Z,1024.54
2023-05-04T10:55:51.926Z,1024.52
2023-05-04T10:56:52.053Z,1024.53
2023-05-04T10:57:52.231Z,1024.51
2023-05-04T10:58:52.407Z,1024.53
2023-05-04T10:59:52.583Z,1024.52
2023-05-04T11:00:52.770Z,1024.56
2023-05-04T11:01:52.947Z,1024.53
2023-05-04T11:02:53.188Z,1024.54
2023-05-04T11:03:53.376Z,1024.50
2023-05-04T11:04:53.436Z,1024.51
2023-05-04T11:05:53.638Z,1024.47
2023-05-04T11:06:53.778Z,1024.40
2023-05-04T11:07:53.937Z,1024.42
2023-05-04T11:08:54.123Z,1024.39
2023-05-04T11:09:54.316Z,1024.42
2023-05-04T11:10:54.493Z,1024.40
2023-05-04T11:11:54.759Z,1024.40
2023-05-04T11:12:55.053Z,1024.42
2023-05-04T11:13:55.028Z,1024.39
2023-05-04T11:14:55.206Z,1024.35
2023-05-04T11:15:55.421Z,1024.37
2023-05-04T11:16:55.619Z,1024.33
2023-05-04T11:17:55.721Z,1024.30
2023-05-04T11:18:55.883Z,1024.34
2023-05-04T11:19:56.055Z,1024.34
2023-05-04T11:20:56.222Z,1024.31
2023-05-04T11:21:56.375Z,1024.24
2023-05-04T11:22:56.544Z,1024.22
2023-05-04T11:23:56.718Z,1024.25
2023-05-04T11:24:56.873Z,1024.21
2023-05-04T11:25:57.079Z,1024.22
2023-05-04T11:26:57.273Z,1024.18
2023-05-04T11:27:57.380Z,1024.22
2023-05-04T11:28:57.573Z,1024.19
2023-05-04T11:29:57.753Z,1024.23
2023-05-04T11:30:57.907Z,1024.23
2023-05-04T11:31:58.169Z,1024.19
2023-05-04T11:32:58.254Z,1024.19
2023-05-04T11:33:58.414Z,1024.19
2023-05-04T11:34:58.596Z,1024.17
2023-05-04T11:35:58.743Z,1024.15
2023-05-04T11:36:58.926Z,1024.14
2023-05-04T11:37:59.148Z,1024.17
2023-05-04T11:38:59.294Z,1024.13
2023-05-04T11:39:59.505Z,1024.11
2023-05-04T11:40:59.651Z,1024.11
2023-05-04T11:41:59.791Z,1024.10
2023-05-04T11:42:59.957Z,1024.06
2023-05-04T11:44:00.143Z,1024.08
2023-05-04T11:45:00.324Z,1024.05
2023-05-04T11:46:00.521Z,1024.03
2023-05-04T11:47:00.661Z,1024.04
2023-05-04T11:48:00.886Z,1024.04
2023-05-04T11:49:01.036Z,1024.02
2023-05-04T11:50:01.208Z,1023.98
2023-05-04T11:51:01.380Z,1023.98
2023-05-04T11:52:01.687Z,1023.98
2023-05-04T11:53:01.725Z,1023.99
2023-05-04T11:54:01.948Z,1023.97
2023-05-04T11:55:02.112Z,1024.00
2023-05-04T11:56:02.275Z,1023.99
2023-05-04T11:57:02.435Z,1023.93
2023-05-04T11:58:02.610Z,1023.89
2023-05-04T11:59:02.808Z,1023.85
2023-05-04T12:00:02.970Z,1023.87
2023-05-04T12:01:03.140Z,1023.85
2023-05-04T12:02:03.332Z,1023.85
2023-05-04T12:03:03.556Z,1023.80
2023-05-04T12:04:03.717Z,1023.81
2023-05-04T12:05:03.818Z,1023.79
2023-05-04T12:06:04.019Z,1023.85
2023-05-04T12:07:04.157Z,1023.78
2023-05-04T12:08:04.343Z,1023.86